createdAt,value
2022-12-10T08:10:49.001Z,1.30
2022-12-10T08:13:17.004Z,1.30
2022-12-10T08:15:45.040Z,1.20
2022-12-10T08:18:13.131Z,1.30
2022-12-10T08:20:41.203Z,1.30
2022-12-10T08:23:09.212Z,1.40
2022-12-10T08:25:40.597Z,1.50
2022-12-10T08:28:10.297Z,1.50
2022-12-10T08:30:38.341Z,1.50
2022-12-10T08:33:06.378Z,1.50
2022-12-10T08:35:34.389Z,1.50
2022-12-10T08:38:02.398Z,1.50
2022-12-10T08:40:30.680Z,1.50
2022-12-10T08:42:58.693Z,1.40
2022-12-10T08:45:29.453Z,1.40
2022-12-10T08:47:57.522Z,1.50
2022-12-10T08:50:25.544Z,1.50
2022-12-10T08:52:53.585Z,1.50
2022-12-10T08:55:21.591Z,1.60
2022-12-10T08:57:49.744Z,1.60
2022-12-10T09:00:19.766Z,1.60
2022-12-10T09:02:49.351Z,1.60
2022-12-10T09:05:17.713Z,1.60
2022-12-10T09:07:45.788Z,1.60
2022-12-10T09:10:13.890Z,1.60
2022-12-10T09:12:42.079Z,1.70
2022-12-10T09:15:11.929Z,1.70
2022-12-10T09:17:40.456Z,1.60
2022-12-10T09:20:10.873Z,1.70
2022-12-10T09:22:39.401Z,1.70
2022-12-10T09:25:10.910Z,1.70
2022-12-10T09:27:39.145Z,1.70
2022-12-10T09:30:08.460Z,1.70
2022-12-10T09:32:36.656Z,1.80
2022-12-10T09:35:05.412Z,1.80
2022-12-10T09:37:34.814Z,1.80
2022-12-10T09:40:04.296Z,1.90
2022-12-10T09:42:42.757Z,1.90
2022-12-10T09:45:18.413Z,1.90
2022-12-10T09:47:54.954Z,1.90
2022-12-10T09:50:28.620Z,1.90
2022-12-10T09:53:01.102Z,1.90
2022-12-10T09:55:37.269Z,1.90
2022-12-10T09:58:07.492Z,1.90
2022-12-10T10:00:39.384Z,1.90
2022-12-10T10:03:08.449Z,1.90
2022-12-10T10:05:41.120Z,2.00
2022-12-10T10:08:19.391Z,2.10
2022-12-10T10:10:48.222Z,2.00
2022-12-10T10:13:23.568Z,2.10
2022-12-10T10:15:52.517Z,2.20
2022-12-10T10:18:30.502Z,2.30
2022-12-10T10:20:59.096Z,2.40
2022-12-10T10:23:28.648Z,2.50
2022-12-10T10:25:56.692Z,2.60
2022-12-10T10:28:25.331Z,2.70
2022-12-10T10:30:55.565Z,2.70
2022-12-10T10:33:23.846Z,2.70
2022-12-10T10:35:56.424Z,2.70
2022-12-10T10:38:26.259Z,2.70
2022-12-10T10:40:57.654Z,2.90
2022-12-10T10:43:28.279Z,3.10
2022-12-10T10:46:00.357Z,3.20
2022-12-10T10:48:29.921Z,3.30
2022-12-10T10:51:09.283Z,3.30
2022-12-10T10:53:44.697Z,3.20
2022-12-10T10:56:21.649Z,3.20
2022-12-10T10:58:55.049Z,3.20
2022-12-10T11:01:25.447Z,3.20
2022-12-10T11:03:57.639Z,3.30
2022-12-10T11:06:26.397Z,3.30
2022-12-10T11:08:58.616Z,3.40
2022-12-10T11:11:36.998Z,3.50
2022-12-10T11:14:25.965Z,3.60
2022-12-10T11:17:03.259Z,3.80
2022-12-10T11:19:31.418Z,4.10
2022-12-10T11:22:18.287Z,4.40
2022-12-10T11:24:48.660Z,5.10
2022-12-10T11:27:27.365Z,5.50
2022-12-10T11:30:02.934Z,6.00
2022-12-10T11:32:46.209Z,6.50
2022-12-10T11:35:18.887Z,7.00
2022-12-10T11:37:55.074Z,7.20
2022-12-10T11:40:46.710Z,7.60
2022-12-10T11:43:44.555Z,8.00
2022-12-10T11:46:35.663Z,8.20
2022-12-10T11:49:18.853Z,8.00
2022-12-10T11:51:52.376Z,7.80
2022-12-10T11:54:33.000Z,7.90
2022-12-10T11:57:08.209Z,8.10
2022-12-10T12:00:04.154Z,8.20
2022-12-10T12:02:50.158Z,8.30
2022-12-10T12:05:35.164Z,8.40
2022-12-10T12:08:14.257Z,8.50
2022-12-10T12:11:03.927Z,8.80
2022-12-10T12:13:37.745Z,9.00
2022-12-10T12:16:13.353Z,9.20
2022-12-10T12:18:48.189Z,9.40
2022-12-10T12:21:18.443Z,9.60
2022-12-10T12:23:52.420Z,9.50
2022-12-10T12:26:26.719Z,9.40
2022-12-10T12:28:59.109Z,9.50
2022-12-10T12:31:38.984Z,9.40
2022-12-10T12:34:15.076Z,9.60
2022-12-10T12:36:43.815Z,9.80
2022-12-10T12:39:22.008Z,9.80
2022-12-10T12:42:01.588Z,9.90
2022-12-10T12:44:36.487Z,10.10
2022-12-10T12:47:21.601Z,10.10
2022-12-10T12:49:51.129Z,10.10
2022-12-10T12:52:33.390Z,10.10
2022-12-10T12:55:06.064Z,10.10
2022-12-10T12:57:43.372Z,10.30
2022-12-10T13:00:19.211Z,10.10
2022-12-10T13:03:01.107Z,10.20
2022-12-10T13:05:34.392Z,10.30
2022-12-10T13:08:29.999Z,10.20
2022-12-10T13:11:17.898Z,10.20
2022-12-10T13:14:19.185Z,10.10
2022-12-10T13:17:01.515Z,9.80
2022-12-10T13:19:32.686Z,9.60
2022-12-10T13:22:12.670Z,9.30
2022-12-10T13:25:13.485Z,9.20
2022-12-10T13:27:42.661Z,8.90
2022-12-10T13:30:36.558Z,8.60
2022-12-10T13:33:17.318Z,8.60
2022-12-10T13:35:57.051Z,8.50
2022-12-10T13:38:26.481Z,8.50
2022-12-10T13:41:32.708Z,8.60
2022-12-10T13:44:25.496Z,8.80
2022-12-10T13:46:57.172Z,9.00
2022-12-10T13:49:27.062Z,9.10
2022-12-10T13:52:03.280Z,9.00
2022-12-10T13:55:20.957Z,9.40
2022-12-10T13:58:05.667Z,9.60
2022-12-10T14:00:40.768Z,9.40
2022-12-10T14:03:39.550Z,9.30
2022-12-10T14:06:16.073Z,9.20
2022-12-10T14:08:59.045Z,9.30
2022-12-10T14:11:37.065Z,9.30
2022-12-10T14:14:08.875Z,9.70
2022-12-10T14:16:38.054Z,10.00
2022-12-10T14:19:08.773Z,10.40
2022-12-10T14:21:39.818Z,10.70
2022-12-10T14:24:28.776Z,10.90
2022-12-10T14:27:00.800Z,11.20
2022-12-10T14:29:29.688Z,11.30
2022-12-10T14:31:58.497Z,11.30
2022-12-10T14:34:30.167Z,11.10
2022-12-10T14:37:00.472Z,10.70
2022-12-10T14:39:32.369Z,10.20
2022-12-10T14:42:03.296Z,9.40
2022-12-10T14:44:33.451Z,8.60
2022-12-10T14:47:07.236Z,8.00
2022-12-10T14:49:43.413Z,7.60
2022-12-10T14:52:14.219Z,7.20
2022-12-10T14:54:43.870Z,7.00
2022-12-10T14:57:18.261Z,6.80
2022-12-10T14:59:51.269Z,6.70
2022-12-10T15:02:24.775Z,6.40
